Time;durP1;ratioP1;P1;durP2;ratioP2;P2;SDS_P1;SDS_P2;PMS_P1;PMS_P2;Temp;Humidity;BMP_temperature;BMP_pressure;BME280_temperature;BME280_humidity;BME280_pressure;Samples;Min_cycle;Max_cycle;Signal;HPM_P1;HPM_P2
2023/10/18 00:02:16;;;;;;;25.55;12.90;;;4.70;99.90;;;;;;5043435;28;20074;-69
2023/10/18 00:04:44;;;;;;;27.02;14.00;;;4.70;99.90;;;;;;5044274;28;20049;-69
2023/10/18 00:07:12;;;;;;;28.33;14.02;;;4.60;99.90;;;;;;5020347;28;218858;-69
2023/10/18 00:09:42;;;;;;;27.23;14.57;;;4.60;99.90;;;;;;5032715;28;20056;-68
2023/10/18 00:12:08;;;;;;;29.80;14.40;;;4.60;99.90;;;;;;5055009;28;85964;-68
2023/10/18 00:14:35;;;;;;;33.85;15.75;;;4.60;99.90;;;;;;5030961;28;20052;-69
2023/10/18 00:17:01;;;;;;;31.45;16.20;;;4.70;99.90;;;;;;5046079;28;149906;-69
2023/10/18 00:19:27;;;;;;;28.45;14.85;;;4.70;99.90;;;;;;5037818;28;20056;-68
2023/10/18 00:21:53;;;;;;;34.17;15.50;;;4.60;99.90;;;;;;5046461;28;36032;-69
2023/10/18 00:24:19;;;;;;;29.08;16.40;;;4.70;99.90;;;;;;5059818;28;20056;-69
2023/10/18 00:26:45;;;;;;;30.52;15.38;;;4.60;99.90;;;;;;4980033;28;227874;-69
2023/10/18 00:29:12;;;;;;;30.85;15.25;;;4.60;99.90;;;;;;5061341;28;20045;-70
2023/10/18 00:31:38;;;;;;;33.97;16.88;;;4.60;99.90;;;;;;5001141;28;245455;-68
2023/10/18 00:34:07;;;;;;;30.80;16.70;;;4.60;99.90;;;;;;5054211;28;20048;-68
2023/10/18 00:36:33;;;;;;;34.05;17.67;;;4.60;99.90;;;;;;5010439;28;24569;-69
2023/10/18 00:38:59;;;;;;;35.17;17.65;;;4.60;99.90;;;;;;5055371;28;20056;-69
2023/10/18 00:41:37;;;;;;;32.95;16.73;;;4.60;99.90;;;;;;5011405;28;124074;-69
2023/10/18 00:44:11;;;;;;;30.55;16.83;;;4.60;99.90;;;;;;5059807;28;20045;-69
2023/10/18 00:46:39;;;;;;;31.20;17.38;;;4.60;99.90;;;;;;5006036;28;215811;-69
2023/10/18 00:49:13;;;;;;;36.17;19.23;;;4.60;99.90;;;;;;5055717;28;20064;-68
2023/10/18 00:51:41;;;;;;;38.97;18.90;;;4.60;99.90;;;;;;4986332;28;147034;-70
2023/10/18 00:54:11;;;;;;;32.55;17.83;;;4.60;99.90;;;;;;5056970;28;20051;-69
2023/10/18 00:56:45;;;;;;;36.88;19.73;;;4.60;99.90;;;;;;5011583;28;28708;-70
2023/10/18 00:59:19;;;;;;;36.97;19.92;;;4.50;99.90;;;;;;5064135;28;20418;-68
2023/10/18 01:01:46;;;;;;;35.45;19.85;;;4.60;99.90;;;;;;5016002;28;160191;-68
2023/10/18 01:04:13;;;;;;;36.38;20.17;;;4.60;99.90;;;;;;5058362;28;20045;-69
2023/10/18 01:06:46;;;;;;;39.05;19.88;;;4.60;99.90;;;;;;5022478;28;65448;-68
2023/10/18 01:09:16;;;;;;;38.63;20.23;;;4.60;99.90;;;;;;5056805;28;20057;-69
2023/10/18 01:11:46;;;;;;;39.22;21.35;;;4.60;99.90;;;;;;4997019;28;253459;-68
2023/10/18 01:14:17;;;;;;;35.58;20.63;;;4.60;99.90;;;;;;5059053;28;20585;-68
2023/10/18 01:16:44;;;;;;;43.53;20.67;;;4.50;99.90;;;;;;5022767;28;25272;-69
2023/10/18 01:19:14;;;;;;;35.10;19.63;;;4.50;99.90;;;;;;5042097;28;20059;-69
2023/10/18 01:21:47;;;;;;;38.47;21.35;;;4.50;99.90;;;;;;5014272;28;154781;-68
2023/10/18 01:24:16;;;;;;;43.97;20.65;;;4.50;99.90;;;;;;5057805;28;20503;-69
2023/10/18 01:26:43;;;;;;;41.85;21.15;;;4.50;99.90;;;;;;4983283;28;174842;-69
2023/10/18 01:29:10;;;;;;;40.30;21.48;;;4.40;99.90;;;;;;5063768;28;20049;-68
2023/10/18 01:31:37;;;;;;;44.95;22.10;;;4.40;99.90;;;;;;5022581;28;153434;-68
2023/10/18 01:34:03;;;;;;;41.63;22.35;;;4.40;99.90;;;;;;5058301;28;20072;-68
2023/10/18 01:36:32;;;;;;;44.78;22.58;;;4.40;99.90;;;;;;4982282;28;137469;-69
2023/10/18 01:38:59;;;;;;;41.33;22.52;;;4.40;99.90;;;;;;5055696;28;20057;-69
2023/10/18 01:41:25;;;;;;;46.42;24.83;;;4.40;99.90;;;;;;5025693;28;20048;-69
2023/10/18 01:43:58;;;;;;;46.03;23.25;;;4.40;99.90;;;;;;5058130;28;20060;-68
2023/10/18 01:46:24;;;;;;;45.00;24.38;;;4.40;99.90;;;;;;5009678;28;116724;-68
2023/10/18 01:48:55;;;;;;;45.22;24.40;;;4.40;99.90;;;;;;5053844;28;20056;-68
2023/10/18 01:51:21;;;;;;;50.47;23.73;;;4.40;99.90;;;;;;5000362;28;229505;-68
2023/10/18 01:53:50;;;;;;;45.20;23.95;;;4.30;99.90;;;;;;5037261;28;20442;-70
2023/10/18 01:56:19;;;;;;;45.70;24.20;;;4.30;99.90;;;;;;5016921;28;260562;-69
2023/10/18 01:58:46;;;;;;;50.42;26.20;;;4.30;99.90;;;;;;5059038;28;20475;-69
2023/10/18 02:01:16;;;;;;;48.92;25.90;;;4.40;99.90;;;;;;5026362;28;42043;-68
2023/10/18 02:03:44;;;;;;;46.92;23.95;;;4.40;99.90;;;;;;5056070;28;20052;-68
2023/10/18 02:06:14;;;;;;;50.15;26.60;;;4.30;99.90;;;;;;5019775;28;31369;-68
2023/10/18 02:08:41;;;;;;;51.05;25.08;;;4.30;99.90;;;;;;5057620;28;20056;-69
2023/10/18 02:11:09;;;;;;;46.22;23.75;;;4.30;99.90;;;;;;5018871;28;143713;-69
2023/10/18 02:13:41;;;;;;;48.13;24.67;;;4.30;99.90;;;;;;5059699;28;20040;-68
2023/10/18 02:16:15;;;;;;;46.20;25.73;;;4.30;99.90;;;;;;5010630;28;29466;-69
2023/10/18 02:18:42;;;;;;;44.40;24.45;;;4.30;99.90;;;;;;5057824;28;20060;-69
2023/10/18 02:21:08;;;;;;;50.10;26.33;;;4.30;99.90;;;;;;5018543;28;83657;-69
2023/10/18 02:23:36;;;;;;;48.20;25.88;;;4.30;99.90;;;;;;5053144;28;20060;-68
2023/10/18 02:28:50;;;;;;;47.78;25.50;;;4.30;99.90;;;;;;5057702;28;20048;-68
2023/10/18 02:31:21;;;;;;;47.20;25.05;;;4.30;99.90;;;;;;5016751;28;140987;-69
2023/10/18 02:33:53;;;;;;;45.97;25.40;;;4.30;99.90;;;;;;5055002;28;20057;-69
2023/10/18 02:39:08;;;;;;;46.67;26.08;;;4.30;99.90;;;;;;5062234;28;20467;-68
2023/10/18 02:41:37;;;;;;;48.40;24.67;;;4.30;99.90;;;;;;5022226;28;180064;-68
2023/10/18 02:44:10;;;;;;;43.28;24.15;;;4.30;99.90;;;;;;5054497;28;20131;-68
2023/10/18 02:46:36;;;;;;;43.28;24.98;;;4.30;99.90;;;;;;5026941;28;135366;-68
2023/10/18 02:49:07;;;;;;;46.70;25.52;;;4.30;99.90;;;;;;5056878;28;20052;-68
2023/10/18 02:51:35;;;;;;;47.05;25.98;;;4.30;99.90;;;;;;4978015;28;224415;-68
2023/10/18 02:54:07;;;;;;;44.53;25.33;;;4.30;99.90;;;;;;5056527;28;20059;-69
2023/10/18 02:56:37;;;;;;;48.67;26.25;;;4.30;99.90;;;;;;5011112;28;79656;-69
2023/10/18 02:59:10;;;;;;;44.40;25.20;;;4.20;99.90;;;;;;5058523;28;20052;-69
2023/10/18 03:01:39;;;;;;;44.47;25.10;;;4.20;99.90;;;;;;5000940;28;215322;-68
2023/10/18 03:04:08;;;;;;;49.63;25.65;;;4.20;99.90;;;;;;5057308;28;20040;-67
2023/10/18 03:06:37;;;;;;;47.72;25.35;;;4.20;99.90;;;;;;5010288;28;159211;-69
2023/10/18 03:09:05;;;;;;;42.88;24.63;;;4.20;99.90;;;;;;5039136;28;20052;-68
2023/10/18 03:11:36;;;;;;;44.65;25.67;;;4.10;99.90;;;;;;5010898;28;179740;-69
2023/10/18 03:14:02;;;;;;;42.75;25.85;;;4.20;99.90;;;;;;5056821;28;20048;-69
2023/10/18 03:16:54;;;;;;;43.17;25.73;;;4.20;99.90;;;;;;5006020;28;80889;-68
2023/10/18 03:19:18;;;;;;;42.28;24.95;;;4.10;99.90;;;;;;5054394;28;20181;-68
2023/10/18 03:21:49;;;;;;;46.28;26.38;;;4.20;99.90;;;;;;5008702;28;210891;-69
2023/10/18 03:24:19;;;;;;;47.53;25.20;;;4.10;99.90;;;;;;5058950;28;20063;-68
2023/10/18 03:26:46;;;;;;;43.83;25.35;;;4.20;99.90;;;;;;5025122;28;135929;-68
2023/10/18 03:29:12;;;;;;;50.88;26.90;;;4.10;99.90;;;;;;5055904;28;20055;-71
2023/10/18 03:31:43;;;;;;;46.30;26.52;;;4.20;99.90;;;;;;5028256;28;20060;-67
2023/10/18 03:34:29;;;;;;;44.40;27.33;;;4.20;99.90;;;;;;5058477;28;20056;-68
2023/10/18 03:36:55;;;;;;;46.08;26.13;;;4.10;99.90;;;;;;5014308;28;61224;-69
2023/10/18 03:39:25;;;;;;;44.45;25.27;;;4.10;99.90;;;;;;5058632;28;20056;-69
2023/10/18 03:41:52;;;;;;;46.75;25.98;;;4.10;99.90;;;;;;5003922;28;31960;-69
2023/10/18 03:44:26;;;;;;;41.97;24.88;;;4.10;99.90;;;;;;5059862;28;20056;-68
2023/10/18 03:47:11;;;;;;;43.47;25.67;;;4.10;99.90;;;;;;4982007;28;56252;-68
2023/10/18 03:49:37;;;;;;;43.80;24.42;;;4.10;99.90;;;;;;5026637;28;20049;-69
2023/10/18 03:54:44;;;;;;;45.53;26.13;;;4.10;99.90;;;;;;5028200;28;20060;-68
2023/10/18 03:57:16;;;;;;;39.03;25.27;;;4.10;99.90;;;;;;5042152;28;179068;-68
2023/10/18 03:59:45;;;;;;;43.55;25.73;;;4.00;99.90;;;;;;5023109;28;20049;-69
2023/10/18 04:02:27;;;;;;;48.10;26.33;;;4.00;99.90;;;;;;5031378;28;20502;-68
2023/10/18 04:05:00;;;;;;;48.13;26.02;;;4.00;99.90;;;;;;5018830;28;162661;-68
2023/10/18 04:07:26;;;;;;;47.65;27.30;;;4.00;99.90;;;;;;5067289;28;20516;-69
2023/10/18 04:09:54;;;;;;;46.17;26.02;;;4.00;99.90;;;;;;5017306;28;183495;-69
2023/10/18 04:12:22;;;;;;;43.22;25.77;;;4.00;99.90;;;;;;5048620;28;20539;-68
2023/10/18 04:15:00;;;;;;;45.65;27.17;;;4.00;99.90;;;;;;5012509;28;152723;-70
2023/10/18 04:20:01;;;;;;;45.87;26.63;;;4.00;99.90;;;;;;5014987;28;171356;-69
2023/10/18 04:22:28;;;;;;;45.45;26.50;;;3.90;99.90;;;;;;5049155;28;20122;-70
2023/10/18 04:24:54;;;;;;;45.83;28.30;;;3.90;99.90;;;;;;5012956;28;183878;-69
2023/10/18 04:27:21;;;;;;;48.40;27.80;;;3.90;99.90;;;;;;5058052;28;20048;-69
2023/10/18 04:29:49;;;;;;;46.58;27.25;;;3.90;99.90;;;;;;5018140;28;66342;-69
2023/10/18 04:32:18;;;;;;;47.80;26.83;;;3.90;99.90;;;;;;5040770;28;20056;-68
2023/10/18 04:34:44;;;;;;;49.80;27.63;;;3.90;99.90;;;;;;5029194;28;20464;-69
2023/10/18 04:37:12;;;;;;;48.65;27.25;;;4.00;99.90;;;;;;5028692;28;260875;-68
2023/10/18 04:39:41;;;;;;;48.65;28.27;;;3.90;99.90;;;;;;5027868;28;20507;-70
2023/10/18 04:42:08;;;;;;;43.10;25.90;;;3.90;99.90;;;;;;5043365;28;46956;-68
2023/10/18 04:44:35;;;;;;;48.67;28.52;;;3.90;99.90;;;;;;5021554;28;20056;-70
2023/10/18 04:47:13;;;;;;;50.70;28.00;;;4.00;99.90;;;;;;5038568;28;242068;-68
2023/10/18 04:49:40;;;;;;;48.05;28.00;;;4.00;99.90;;;;;;5030493;28;20067;-70
2023/10/18 04:52:16;;;;;;;49.05;27.30;;;4.00;99.90;;;;;;5036435;28;225815;-70
2023/10/18 04:54:42;;;;;;;50.17;28.45;;;4.00;99.90;;;;;;5030463;28;20041;-67
2023/10/18 04:57:11;;;;;;;52.15;28.77;;;3.90;99.90;;;;;;5040163;28;179810;-69
2023/10/18 04:59:45;;;;;;;49.58;28.23;;;3.90;99.90;;;;;;5022952;28;20052;-70
2023/10/18 05:02:17;;;;;;;48.55;28.65;;;3.90;99.90;;;;;;5032086;28;20442;-68
2023/10/18 05:04:46;;;;;;;48.92;28.35;;;3.90;99.90;;;;;;5031880;28;20057;-68
2023/10/18 05:17:32;;;;;;;45.53;28.77;;;3.90;99.90;;;;;;5052037;28;20041;-69
2023/10/18 05:20:14;;;;;;;47.38;28.13;;;3.90;99.90;;;;;;5020895;28;20056;-69
2023/10/18 05:22:41;;;;;;;52.92;29.30;;;3.90;99.90;;;;;;5058286;28;20083;-69
2023/10/18 05:27:47;;;;;;;48.78;28.55;;;3.90;99.90;;;;;;5067845;28;20047;-69
2023/10/18 05:30:17;;;;;;;50.70;29.58;;;3.90;99.90;;;;;;5004618;28;195778;-69
2023/10/18 05:32:49;;;;;;;52.78;30.05;;;3.80;99.90;;;;;;5029141;28;21056;-67
2023/10/18 05:35:19;;;;;;;50.00;31.13;;;3.80;99.90;;;;;;5009144;28;204205;-69
2023/10/18 05:38:19;;;;;;;51.30;29.23;;;3.90;99.90;;;;;;5057146;28;20040;-69
2023/10/18 05:40:56;;;;;;;51.28;30.73;;;3.90;99.90;;;;;;5024238;28;29978;-68
2023/10/18 05:43:23;;;;;;;52.15;29.55;;;3.90;99.90;;;;;;5060680;28;20068;-70
2023/10/18 05:45:56;;;;;;;51.53;30.20;;;3.90;99.90;;;;;;5012609;28;50188;-68
2023/10/18 05:48:23;;;;;;;51.17;30.05;;;3.90;99.90;;;;;;5051775;28;20056;-69
2023/10/18 05:50:49;;;;;;;49.80;29.70;;;3.90;99.90;;;;;;5003506;28;138610;-69
2023/10/18 05:53:18;;;;;;;55.20;30.42;;;4.00;99.90;;;;;;5060080;28;20053;-69
2023/10/18 05:55:53;;;;;;;55.10;31.45;;;3.90;99.90;;;;;;5010895;28;235360;-68
2023/10/18 05:58:26;;;;;;;48.15;29.10;;;4.00;99.90;;;;;;5054593;28;20061;-70
2023/10/18 06:00:55;;;;;;;48.55;29.67;;;3.90;99.90;;;;;;5017458;28;120149;-69
2023/10/18 06:03:25;;;;;;;49.08;28.45;;;4.00;99.90;;;;;;5063637;28;20131;-69
2023/10/18 06:05:55;;;;;;;49.30;28.20;;;4.00;99.90;;;;;;5009480;28;20052;-69
2023/10/18 06:08:25;;;;;;;44.92;28.88;;;4.00;99.90;;;;;;5058088;28;20053;-69
2023/10/18 06:10:57;;;;;;;47.08;30.88;;;3.90;99.90;;;;;;5016988;28;131803;-69
2023/10/18 06:13:24;;;;;;;46.83;29.05;;;3.90;99.90;;;;;;5056007;28;20053;-68
2023/10/18 06:15:50;;;;;;;46.45;28.55;;;3.90;99.90;;;;;;5021207;28;54619;-70
2023/10/18 06:18:22;;;;;;;49.13;28.20;;;4.00;99.90;;;;;;5062110;28;20048;-68
2023/10/18 06:20:52;;;;;;;48.00;30.35;;;3.90;99.90;;;;;;5013736;28;229842;-69
2023/10/18 06:25:50;;;;;;;48.28;29.38;;;3.90;99.90;;;;;;5020324;28;175406;-70
2023/10/18 06:28:21;;;;;;;49.17;29.90;;;4.00;99.90;;;;;;5062816;28;20068;-69
2023/10/18 06:30:51;;;;;;;43.67;28.90;;;4.10;99.90;;;;;;5003243;28;246963;-68
2023/10/18 06:33:19;;;;;;;45.88;28.60;;;4.00;99.90;;;;;;5059236;28;20310;-68
2023/10/18 06:35:52;;;;;;;45.40;29.17;;;4.10;99.90;;;;;;5009366;28;50609;-69
2023/10/18 06:38:22;;;;;;;52.55;31.60;;;4.10;99.90;;;;;;5047439;28;20064;-69
2023/10/18 06:43:25;;;;;;;47.42;29.27;;;4.20;99.90;;;;;;5059560;28;20049;-70
2023/10/18 06:45:53;;;;;;;47.22;30.08;;;4.20;99.90;;;;;;5006305;28;77365;-68
2023/10/18 06:48:26;;;;;;;45.80;28.33;;;4.30;99.90;;;;;;5052575;28;20061;-70
2023/10/18 06:50:55;;;;;;;45.33;31.02;;;4.30;99.90;;;;;;4995670;28;229692;-69
2023/10/18 06:53:21;;;;;;;50.13;30.30;;;4.30;99.90;;;;;;5054136;28;20447;-69
2023/10/18 06:56:05;;;;;;;44.72;29.30;;;4.40;99.90;;;;;;5011932;28;29463;-69
2023/10/18 07:01:04;;;;;;;42.22;26.58;;;4.50;99.90;;;;;;5025954;28;22752;-69
2023/10/18 07:03:37;;;;;;;43.50;27.70;;;4.60;99.90;;;;;;5049036;28;20057;-69
2023/10/18 07:06:05;;;;;;;40.80;27.40;;;4.60;99.90;;;;;;5001565;28;71422;-69
2023/10/18 07:08:34;;;;;;;38.05;24.83;;;4.60;99.90;;;;;;5058154;28;20045;-69
2023/10/18 07:11:01;;;;;;;42.53;26.45;;;4.70;99.90;;;;;;5005341;28;220810;-68
2023/10/18 07:13:38;;;;;;;38.13;25.08;;;4.80;99.90;;;;;;5050758;28;20052;-67
2023/10/18 07:16:11;;;;;;;39.63;24.77;;;4.80;99.90;;;;;;4999611;28;204423;-69
2023/10/18 07:18:38;;;;;;;36.60;24.88;;;4.90;99.90;;;;;;5054928;28;20056;-68
2023/10/18 07:21:09;;;;;;;37.75;26.00;;;4.90;99.90;;;;;;5003595;28;277482;-68
2023/10/18 07:23:36;;;;;;;42.15;26.85;;;5.00;99.90;;;;;;5057778;28;20041;-68
2023/10/18 07:26:07;;;;;;;37.50;24.83;;;5.00;99.90;;;;;;5014341;28;37999;-69
2023/10/18 07:28:36;;;;;;;38.88;24.90;;;5.10;99.90;;;;;;5055847;28;20044;-68
2023/10/18 07:31:09;;;;;;;38.17;24.23;;;5.20;99.90;;;;;;5003157;28;159913;-67
2023/10/18 07:33:41;;;;;;;35.47;23.88;;;5.20;99.90;;;;;;5055855;28;20053;-70
2023/10/18 07:36:09;;;;;;;38.60;24.25;;;5.30;99.90;;;;;;4994417;28;208094;-68
2023/10/18 07:38:46;;;;;;;41.72;24.45;;;5.40;99.90;;;;;;5057990;28;20131;-69
2023/10/18 07:41:15;;;;;;;33.70;22.52;;;5.50;99.90;;;;;;5009482;28;135542;-69
2023/10/18 07:43:44;;;;;;;31.17;21.48;;;5.50;99.90;;;;;;5059863;28;20048;-68
2023/10/18 07:46:16;;;;;;;31.95;22.10;;;5.60;99.90;;;;;;4978701;28;208647;-68
2023/10/18 07:48:46;;;;;;;32.63;22.02;;;5.60;99.90;;;;;;5033247;28;20060;-69
2023/10/18 07:51:23;;;;;;;32.15;20.92;;;5.80;99.90;;;;;;4973485;28;253488;-69
2023/10/18 07:53:51;;;;;;;32.10;21.02;;;5.80;99.90;;;;;;5054737;28;20082;-69
2023/10/18 07:56:17;;;;;;;37.30;21.38;;;5.90;99.90;;;;;;5014451;28;150782;-69
2023/10/18 07:58:49;;;;;;;28.30;20.10;;;5.90;99.90;;;;;;5059362;28;20067;-67
2023/10/18 08:01:32;;;;;;;34.47;21.30;;;6.00;99.90;;;;;;5001457;28;215533;-69
2023/10/18 08:04:01;;;;;;;30.55;20.33;;;6.10;99.90;;;;;;5064289;28;20048;-69
2023/10/18 08:06:31;;;;;;;32.97;21.60;;;6.20;99.90;;;;;;5001627;28;21014;-69
2023/10/18 08:08:57;;;;;;;30.42;20.55;;;6.30;99.90;;;;;;5058027;28;20049;-69
2023/10/18 08:11:23;;;;;;;30.52;20.95;;;6.30;99.90;;;;;;5000461;28;237984;-70
2023/10/18 08:13:49;;;;;;;29.90;20.52;;;6.50;99.90;;;;;;5057707;28;20511;-68
2023/10/18 08:16:26;;;;;;;31.90;20.67;;;6.50;99.90;;;;;;5003770;28;231364;-69
2023/10/18 08:18:53;;;;;;;28.02;19.40;;;6.60;99.90;;;;;;5057754;28;20045;-69
2023/10/18 08:24:20;;;;;;;28.10;19.80;;;6.80;99.90;;;;;;5060867;28;20581;-69
2023/10/18 08:26:47;;;;;;;28.73;18.90;;;6.80;99.90;;;;;;5024464;28;215249;-70
2023/10/18 08:29:15;;;;;;;25.15;18.15;;;6.90;99.90;;;;;;5056698;28;20049;-69
2023/10/18 08:31:48;;;;;;;25.95;19.05;;;7.00;99.90;;;;;;5011546;28;57359;-70
2023/10/18 08:34:23;;;;;;;25.70;17.65;;;7.10;99.90;;;;;;5066032;28;20045;-69
2023/10/18 08:37:01;;;;;;;27.08;18.75;;;7.20;99.90;;;;;;5007236;28;52842;-69
2023/10/18 08:39:28;;;;;;;22.63;16.55;;;7.30;99.90;;;;;;5029628;28;20060;-70
2023/10/18 08:42:05;;;;;;;24.40;16.80;;;7.40;99.90;;;;;;5038327;28;146056;-69
2023/10/18 08:44:35;;;;;;;25.25;16.15;;;7.40;99.90;;;;;;5020721;28;20057;-70
2023/10/18 08:49:52;;;;;;;25.00;16.13;;;7.60;99.90;;;;;;5003540;28;168761;-68
2023/10/18 08:52:23;;;;;;;28.38;17.08;;;7.70;99.90;;;;;;5045860;28;20084;-69
2023/10/18 08:54:51;;;;;;;24.27;16.80;;;7.70;99.90;;;;;;5015845;28;20046;-70
2023/10/18 08:57:34;;;;;;;23.63;14.77;;;7.80;99.90;;;;;;5049379;28;20419;-69
2023/10/18 09:02:44;;;;;;;23.15;15.55;;;7.90;99.90;;;;;;5062168;28;20056;-69
2023/10/18 09:05:11;;;;;;;23.02;16.10;;;8.00;99.90;;;;;;5023417;28;20048;-69
2023/10/18 09:07:43;;;;;;;21.42;14.93;;;8.10;99.90;;;;;;5060010;28;20060;-69
2023/10/18 09:10:26;;;;;;;24.15;15.65;;;8.10;99.90;;;;;;5014544;28;20452;-69
2023/10/18 09:15:35;;;;;;;24.35;14.65;;;8.30;99.90;;;;;;5012105;28;20064;-70
2023/10/18 09:18:05;;;;;;;21.08;15.10;;;8.30;99.90;;;;;;5056069;28;20076;-70
2023/10/18 09:20:31;;;;;;;20.95;14.57;;;8.50;99.90;;;;;;5013740;28;20088;-69
2023/10/18 09:23:05;;;;;;;22.55;14.40;;;8.50;99.90;;;;;;5056676;28;20064;-69
2023/10/18 09:25:47;;;;;;;25.10;15.02;;;8.60;99.90;;;;;;5003005;28;20057;-70
2023/10/18 09:28:25;;;;;;;21.17;14.98;;;8.70;99.90;;;;;;5053619;28;20056;-68
2023/10/18 09:31:00;;;;;;;21.48;13.90;;;8.80;99.90;;;;;;5015518;28;20049;-70
2023/10/18 09:33:31;;;;;;;21.88;14.45;;;8.80;99.90;;;;;;5057738;28;20072;-70
2023/10/18 09:36:09;;;;;;;20.58;13.60;;;8.90;99.90;;;;;;5005026;28;20448;-68
2023/10/18 09:38:39;;;;;;;22.33;14.00;;;8.90;99.90;;;;;;5057898;28;20060;-70
2023/10/18 09:41:05;;;;;;;20.60;13.85;;;9.00;99.90;;;;;;5008122;28;20056;-69
2023/10/18 09:43:38;;;;;;;19.33;13.75;;;9.00;99.90;;;;;;5053352;28;20439;-70
2023/10/18 09:46:05;;;;;;;23.23;13.98;;;9.10;99.90;;;;;;5013692;28;20052;-69
2023/10/18 09:48:32;;;;;;;20.13;13.40;;;9.20;99.90;;;;;;5052061;28;20224;-70
2023/10/18 09:51:06;;;;;;;18.23;12.43;;;9.30;99.90;;;;;;5010135;28;58338;-69
2023/10/18 09:53:42;;;;;;;18.92;12.45;;;9.30;99.90;;;;;;5059385;28;20060;-70
2023/10/18 09:56:15;;;;;;;19.38;12.88;;;9.50;99.90;;;;;;5009817;28;20052;-68
2023/10/18 09:58:44;;;;;;;19.17;12.88;;;9.50;99.90;;;;;;5058337;28;20056;-69
2023/10/18 10:01:13;;;;;;;20.15;12.23;;;9.50;99.90;;;;;;5001378;28;20041;-69
2023/10/18 10:03:50;;;;;;;22.52;12.68;;;9.60;99.90;;;;;;5060503;28;20052;-69
2023/10/18 10:06:20;;;;;;;20.30;12.90;;;9.60;99.90;;;;;;5006510;28;20503;-70
2023/10/18 10:08:50;;;;;;;18.85;11.95;;;9.70;99.90;;;;;;5059240;28;20053;-70
2023/10/18 10:11:19;;;;;;;18.20;11.90;;;9.80;99.90;;;;;;5016543;28;20060;-71
2023/10/18 10:13:49;;;;;;;18.90;12.40;;;9.90;99.90;;;;;;5058090;28;20057;-69
2023/10/18 10:16:20;;;;;;;22.05;12.52;;;9.90;99.90;;;;;;5009489;28;20052;-70
2023/10/18 10:18:47;;;;;;;18.87;12.73;;;10.00;99.90;;;;;;5062626;28;20041;-70
2023/10/18 10:21:21;;;;;;;21.50;12.43;;;10.10;99.90;;;;;;4993997;28;20307;-69
2023/10/18 10:23:55;;;;;;;17.40;11.07;;;10.20;99.90;;;;;;5061579;28;20060;-69
2023/10/18 10:26:27;;;;;;;18.23;11.43;;;10.30;99.90;;;;;;5020147;28;20059;-70
2023/10/18 10:31:51;;;;;;;20.35;11.48;;;10.40;99.90;;;;;;5005044;28;20057;-68
2023/10/18 10:34:32;;;;;;;16.77;10.38;;;10.40;99.90;;;;;;5059579;28;20418;-69
2023/10/18 10:37:18;;;;;;;15.50;10.47;;;10.50;99.90;;;;;;5000044;28;20045;-69
2023/10/18 10:39:49;;;;;;;17.00;10.32;;;10.50;99.90;;;;;;5019225;28;20054;-70
2023/10/18 10:42:41;;;;;;;17.90;11.43;;;10.70;99.90;;;;;;5058984;28;20036;-70
2023/10/18 10:50:57;;;;;;;17.38;10.27;;;10.90;99.90;;;;;;4999884;28;131243;-70
2023/10/18 10:53:34;;;;;;;15.75;10.00;;;10.90;99.90;;;;;;5054836;28;20040;-69
2023/10/18 10:56:18;;;;;;;18.38;10.27;;;11.00;99.90;;;;;;4986846;28;20049;-69
2023/10/18 10:58:55;;;;;;;16.83;9.95;;;11.00;99.90;;;;;;5037943;28;20511;-69
2023/10/18 11:01:43;;;;;;;17.05;9.57;;;11.20;99.90;;;;;;4996626;28;20080;-70
2023/10/18 11:04:24;;;;;;;14.63;9.73;;;11.30;99.90;;;;;;5049043;28;20578;-68
2023/10/18 11:06:56;;;;;;;16.90;10.00;;;11.50;99.90;;;;;;5000646;28;20121;-68
2023/10/18 11:09:33;;;;;;;16.23;9.48;;;11.40;99.90;;;;;;5047793;28;20052;-69
2023/10/18 11:12:07;;;;;;;16.80;9.50;;;11.60;99.90;;;;;;5017322;28;20041;-69
2023/10/18 11:14:37;;;;;;;15.13;9.13;;;11.60;99.90;;;;;;5023641;28;20518;-69
2023/10/18 11:19:43;;;;;;;18.60;9.85;;;11.60;99.90;;;;;;5019177;28;20041;-68
2023/10/18 11:22:19;;;;;;;17.80;9.77;;;11.70;99.90;;;;;;5061068;28;20044;-68
2023/10/18 11:24:50;;;;;;;14.80;8.70;;;11.80;99.90;;;;;;5024680;28;20041;-70
2023/10/18 11:27:25;;;;;;;15.02;8.30;;;11.80;99.90;;;;;;5063582;28;20048;-71
2023/10/18 11:29:56;;;;;;;16.58;9.05;;;11.80;99.90;;;;;;5027772;28;20568;-69
2023/10/18 11:32:29;;;;;;;17.27;8.88;;;11.90;99.90;;;;;;5061159;28;20048;-70
2023/10/18 11:35:09;;;;;;;15.48;8.63;;;11.80;99.90;;;;;;5026570;28;20388;-69
2023/10/18 11:37:37;;;;;;;14.10;7.97;;;11.90;99.90;;;;;;5062983;28;20055;-70
2023/10/18 11:40:21;;;;;;;14.32;8.35;;;12.00;99.90;;;;;;5027144;28;20055;-70
2023/10/18 11:42:53;;;;;;;14.23;7.60;;;12.10;99.90;;;;;;5054429;28;20060;-69
2023/10/18 11:45:27;;;;;;;15.13;8.50;;;12.30;99.90;;;;;;5010183;28;20064;-69
2023/10/18 11:47:54;;;;;;;13.05;7.32;;;12.30;99.90;;;;;;5030505;28;20395;-70
2023/10/18 11:50:23;;;;;;;13.25;8.05;;;12.40;99.90;;;;;;5010365;28;82246;-70
2023/10/18 11:52:52;;;;;;;16.80;7.50;;;12.50;99.90;;;;;;5053787;28;20056;-69
2023/10/18 11:55:20;;;;;;;13.57;7.20;;;12.70;99.90;;;;;;5013116;28;20464;-71
2023/10/18 11:57:46;;;;;;;15.00;7.88;;;12.80;99.90;;;;;;5058460;28;20483;-69
2023/10/18 12:02:49;;;;;;;12.70;7.60;;;13.00;99.90;;;;;;5051447;28;20077;-70
2023/10/18 12:05:17;;;;;;;12.48;7.15;;;13.10;99.90;;;;;;5019984;28;20423;-70
2023/10/18 12:07:46;;;;;;;14.68;6.82;;;13.30;99.90;;;;;;5051813;28;20067;-69
2023/10/18 12:10:17;;;;;;;13.48;7.25;;;13.40;99.90;;;;;;5021811;28;20072;-69
2023/10/18 12:12:44;;;;;;;;;;;13.30;99.90;;;;;;5066903;28;20056;-71
2023/10/18 12:15:10;;;;;;;12.68;7.10;;;13.40;99.70;;;;;;5026225;28;20450;-69
2023/10/18 12:17:36;;;;;;;12.00;6.80;;;13.30;99.90;;;;;;5065606;28;20349;-70
2023/10/18 12:20:08;;;;;;;12.18;6.45;;;13.40;99.90;;;;;;5024257;28;20048;-70
2023/10/18 12:22:36;;;;;;;13.48;6.82;;;13.20;99.50;;;;;;5066096;28;20033;-71
2023/10/18 12:25:03;;;;;;;13.60;6.95;;;13.20;99.40;;;;;;5028761;28;20036;-70
2023/10/18 12:27:34;;;;;;;12.52;7.00;;;13.10;99.80;;;;;;5063604;28;20075;-68
2023/10/18 12:30:10;;;;;;;14.90;7.28;;;13.00;99.90;;;;;;5021048;28;20052;-70
2023/10/18 12:32:42;;;;;;;14.40;6.57;;;13.20;99.90;;;;;;5066698;28;20052;-70
2023/10/18 12:35:15;;;;;;;13.50;6.57;;;13.20;99.40;;;;;;5016782;28;20041;-69
2023/10/18 12:37:41;;;;;;;13.27;7.07;;;13.30;99.90;;;;;;5039551;28;20060;-70
2023/10/18 12:42:56;;;;;;;12.15;7.20;;;13.30;99.70;;;;;;5062618;28;20057;-69
2023/10/18 12:45:22;;;;;;;12.88;7.13;;;13.30;99.90;;;;;;5014885;28;20091;-71
2023/10/18 12:47:51;;;;;;;14.38;7.00;;;13.20;99.50;;;;;;5047231;28;20041;-71
2023/10/18 12:50:26;;;;;;;12.80;6.53;;;13.20;99.80;;;;;;4996059;28;239491;-71
2023/10/18 12:52:54;;;;;;;14.00;6.95;;;13.20;99.50;;;;;;5060927;28;20052;-70
2023/10/18 12:55:36;;;;;;;13.70;7.43;;;13.20;99.70;;;;;;5016118;28;20104;-70
2023/10/18 12:58:08;;;;;;;15.32;7.15;;;13.30;99.70;;;;;;5050839;28;20060;-72
2023/10/18 13:00:54;;;;;;;12.63;6.60;;;13.30;99.30;;;;;;5021445;28;20040;-69
2023/10/18 13:03:22;;;;;;;13.25;6.70;;;13.40;99.60;;;;;;5062585;28;20549;-70
2023/10/18 13:05:52;;;;;;;13.65;6.80;;;13.60;99.20;;;;;;5010351;28;20578;-69
2023/10/18 13:08:34;;;;;;;18.65;7.22;;;13.80;99.40;;;;;;5054509;28;20056;-70
2023/10/18 13:13:30;;;;;;;13.13;6.97;;;14.00;98.40;;;;;;5055915;28;20057;-70
2023/10/18 13:15:59;;;;;;;13.25;6.72;;;14.10;98.10;;;;;;5002436;28;20068;-70
2023/10/18 13:18:25;;;;;;;13.30;6.45;;;14.00;97.50;;;;;;5054118;28;20064;-69
2023/10/18 13:20:54;;;;;;;16.17;6.55;;;14.10;98.30;;;;;;4994474;28;20053;-70
2023/10/18 13:23:21;;;;;;;13.60;6.68;;;14.70;97.30;;;;;;5052593;28;20060;-71
2023/10/18 13:25:53;;;;;;;14.27;7.15;;;15.10;97.60;;;;;;5010570;28;20060;-71
2023/10/18 13:31:08;;;;;;;14.32;7.50;;;15.90;96.10;;;;;;5005791;28;20057;-71
2023/10/18 13:33:34;;;;;;;13.10;7.97;;;16.30;95.90;;;;;;5039133;28;20053;-71
2023/10/18 13:36:01;;;;;;;13.70;7.22;;;16.60;95.40;;;;;;5016893;28;20056;-69
2023/10/18 13:38:31;;;;;;;14.52;6.22;;;16.40;96.40;;;;;;5055865;28;20139;-70
2023/10/18 13:40:59;;;;;;;14.23;6.78;;;16.20;96.80;;;;;;5015279;28;20053;-72
2023/10/18 13:43:25;;;;;;;15.30;7.25;;;16.00;95.70;;;;;;5053029;28;21880;-71
2023/10/18 13:45:58;;;;;;;14.30;7.82;;;15.40;96.20;;;;;;5020891;28;20064;-74
2023/10/18 13:48:25;;;;;;;15.27;7.43;;;15.20;96.00;;;;;;5055280;28;20056;-70
2023/10/18 13:50:58;;;;;;;14.90;7.13;;;14.70;96.50;;;;;;5005261;28;20526;-70
2023/10/18 13:53:28;;;;;;;13.95;7.32;;;14.60;96.40;;;;;;5055270;28;20052;-70
2023/10/18 13:56:00;;;;;;;12.98;6.90;;;14.30;96.90;;;;;;4996980;28;20543;-72
2023/10/18 13:58:30;;;;;;;12.57;6.90;;;14.10;96.90;;;;;;5051644;28;20048;-69